Time;durP1;ratioP1;P1;durP2;ratioP2;P2;SDS_P1;SDS_P2;PMS_P1;PMS_P2;Temp;Humidity;BMP_temperature;BMP_pressure;BME280_temperature;BME280_humidity;BME280_pressure;Samples;Min_cycle;Max_cycle;Signal;HPM_P1;HPM_P2
2023/04/11 00:00:58;;;;;;;6.40;6.20;;;14.70;87.30;;;;;;5035674;28;20486;-79
2023/04/11 00:03:26;;;;;;;5.80;5.50;;;14.70;89.50;;;;;;5038859;28;20549;-78
2023/04/11 00:05:55;;;;;;;6.00;5.87;;;14.70;88.30;;;;;;5037309;28;21004;-82
2023/04/11 00:08:24;;;;;;;5.40;5.30;;;14.80;88.70;;;;;;5038789;28;20544;-80
2023/04/11 00:10:52;;;;;;;5.83;5.60;;;14.80;89.00;;;;;;5038830;28;20481;-80
2023/04/11 00:13:22;;;;;;;6.87;6.67;;;14.70;88.80;;;;;;5041841;28;20512;-82
2023/04/11 00:15:54;;;;;;;6.77;6.47;;;14.70;89.30;;;;;;5037831;28;20531;-80
2023/04/11 00:18:24;;;;;;;6.60;6.50;;;14.70;89.00;;;;;;5036876;28;20453;-80
2023/04/11 00:20:52;;;;;;;6.50;6.20;;;14.60;90.80;;;;;;5035168;28;20485;-80
2023/04/11 00:23:20;;;;;;;6.27;6.07;;;14.60;89.10;;;;;;5039660;28;20449;-79
2023/04/11 00:25:50;;;;;;;5.60;5.50;;;14.60;89.50;;;;;;5039550;28;20476;-80
2023/04/11 00:28:19;;;;;;;6.70;6.57;;;14.60;90.40;;;;;;5042395;28;21127;-79
2023/04/11 00:30:47;;;;;;;5.87;5.67;;;14.60;90.40;;;;;;5037863;28;20569;-79
2023/04/11 00:33:15;;;;;;;6.60;6.40;;;14.60;91.40;;;;;;5038651;28;20493;-79
2023/04/11 00:35:44;;;;;;;6.27;6.07;;;14.60;92.30;;;;;;5034252;28;20480;-79
2023/04/11 00:38:12;;;;;;;6.07;5.87;;;14.60;92.10;;;;;;5037265;28;20497;-79
2023/04/11 00:40:40;;;;;;;7.13;6.83;;;14.70;92.60;;;;;;5040167;28;20448;-82
2023/04/11 00:43:10;;;;;;;7.23;7.00;;;14.60;90.60;;;;;;5039367;28;20451;-82
2023/04/11 00:45:38;;;;;;;6.70;6.50;;;14.70;92.60;;;;;;5040549;28;20466;-80
2023/04/11 00:48:06;;;;;;;6.50;6.30;;;14.60;91.80;;;;;;5039259;28;20580;-84
2023/04/11 00:50:39;;;;;;;6.57;6.30;;;14.60;92.50;;;;;;5038535;28;20568;-80
2023/04/11 00:53:08;;;;;;;7.63;5.50;;;14.60;92.80;;;;;;5038021;28;20462;-80
2023/04/11 00:55:37;;;;;;;6.50;6.23;;;14.60;94.00;;;;;;5040621;28;20476;-81
2023/04/11 00:58:07;;;;;;;6.17;5.97;;;14.50;96.00;;;;;;5039149;28;20453;-82
2023/04/11 01:00:37;;;;;;;7.03;6.83;;;14.50;94.40;;;;;;5039201;28;20461;-79
2023/04/11 01:03:05;;;;;;;6.37;6.17;;;14.50;95.70;;;;;;5039674;28;20454;-81
2023/04/11 01:05:35;;;;;;;7.50;7.10;;;14.50;99.90;;;;;;5039675;28;20475;-80
2023/04/11 01:08:03;;;;;;;6.40;6.10;;;14.50;98.10;;;;;;5034997;28;20486;-80
2023/04/11 01:10:32;;;;;;;6.73;6.53;;;14.60;98.20;;;;;;5038347;28;20467;-80
2023/04/11 01:13:01;;;;;;;6.10;6.00;;;14.70;98.30;;;;;;5041132;28;20553;-78
2023/04/11 01:15:29;;;;;;;6.37;6.20;;;14.60;98.20;;;;;;5037997;28;20602;-78
2023/04/11 01:18:00;;;;;;;7.57;7.43;;;14.70;98.60;;;;;;5039587;28;21142;-80
2023/04/11 01:20:30;;;;;;;7.23;7.13;;;14.80;99.90;;;;;;5039005;28;20466;-79
2023/04/11 01:23:01;;;;;;;8.30;7.90;;;14.80;99.90;;;;;;5038285;28;20541;-80
2023/04/11 01:25:31;;;;;;;8.03;7.83;;;14.80;99.90;;;;;;5052806;28;20841;-78
2023/04/11 01:27:59;;;;;;;8.30;8.00;;;14.70;99.90;;;;;;5033591;28;20578;-78
2023/04/11 01:30:27;;;;;;;8.33;7.93;;;14.70;99.90;;;;;;5036677;28;20471;-79
2023/04/11 01:32:55;;;;;;;8.87;8.27;;;14.80;99.90;;;;;;5040395;28;20455;-79
2023/04/11 01:35:23;;;;;;;8.67;8.37;;;14.80;99.90;;;;;;5038745;28;20526;-82
2023/04/11 01:37:52;;;;;;;8.80;8.60;;;14.80;99.90;;;;;;5040625;28;20458;-78
2023/04/11 01:40:22;;;;;;;8.50;8.20;;;14.80;99.90;;;;;;5037062;28;20524;-80
2023/04/11 01:42:52;;;;;;;9.33;8.93;;;14.80;99.90;;;;;;5038438;28;20451;-83
2023/04/11 01:45:21;;;;;;;8.53;8.20;;;14.80;99.90;;;;;;5038686;28;20501;-81
2023/04/11 01:47:51;;;;;;;9.23;8.93;;;14.70;99.90;;;;;;5038372;28;20482;-78
2023/04/11 01:50:19;;;;;;;9.10;8.90;;;14.60;99.90;;;;;;5030521;28;20466;-81
2023/04/11 01:52:48;;;;;;;9.33;9.03;;;14.60;99.90;;;;;;5039048;28;20513;-81
2023/04/11 01:55:16;;;;;;;8.80;8.60;;;14.60;99.90;;;;;;5032314;28;20581;-80
2023/04/11 01:57:44;;;;;;;9.03;8.83;;;14.50;99.90;;;;;;5036486;28;20461;-80
2023/04/11 02:00:15;;;;;;;9.17;8.97;;;14.40;99.90;;;;;;5034248;28;20454;-80
2023/04/11 02:02:43;;;;;;;10.23;10.03;;;14.40;99.90;;;;;;5038452;28;20449;-80
2023/04/11 02:05:11;;;;;;;10.73;10.20;;;14.30;99.90;;;;;;5036395;28;20482;-82
2023/04/11 02:07:40;;;;;;;10.70;10.30;;;14.20;99.90;;;;;;5042424;28;20520;-77
2023/04/11 02:10:09;;;;;;;11.00;10.70;;;14.20;99.90;;;;;;5042799;28;21071;-80
2023/04/11 02:12:37;;;;;;;10.77;10.37;;;14.20;99.90;;;;;;5035900;28;20467;-83
2023/04/11 02:15:06;;;;;;;10.30;10.10;;;14.10;1.00;;;;;;5042335;28;20491;-82
2023/04/11 02:17:36;;;;;;;11.10;10.80;;;14.10;1.00;;;;;;5034215;28;20463;-82
2023/04/11 02:20:06;;;;;;;10.90;10.60;;;14.00;99.90;;;;;;5036379;28;20491;-82
2023/04/11 02:22:34;;;;;;;11.10;10.80;;;13.90;99.90;;;;;;5038933;28;20461;-81
2023/04/11 02:25:02;;;;;;;10.70;10.40;;;13.80;1.00;;;;;;5038908;28;20487;-81
2023/04/11 02:27:30;;;;;;;11.30;10.90;;;13.70;99.90;;;;;;5039893;28;20604;-80
2023/04/11 02:29:59;;;;;;;10.60;10.40;;;13.60;1.00;;;;;;5034584;28;20453;-82
2023/04/11 02:32:29;;;;;;;10.90;10.70;;;13.50;43.80;;;;;;5037151;28;20974;-80
2023/04/11 02:34:58;;;;;;;10.80;10.60;;;13.40;1.00;;;;;;5037830;28;20485;-80
2023/04/11 02:37:26;;;;;;;10.63;10.43;;;13.40;1.00;;;;;;5039526;28;20477;-80
2023/04/11 02:39:55;;;;;;;11.40;11.20;;;13.30;1.00;;;;;;5035834;28;20496;-80
2023/04/11 02:42:23;;;;;;;10.90;10.60;;;13.20;1.00;;;;;;5038222;28;20452;-80
2023/04/11 02:44:54;;;;;;;10.73;10.47;;;13.10;1.00;;;;;;5036982;28;20468;-80
2023/04/11 02:47:22;;;;;;;10.70;10.50;;;13.00;57.60;;;;;;5036081;28;20507;-81
2023/04/11 02:49:50;;;;;;;10.80;10.60;;;13.00;1.00;;;;;;5036996;28;20453;-80
2023/04/11 02:52:20;;;;;;;11.17;10.73;;;13.00;8.10;;;;;;5037951;28;20460;-79
2023/04/11 02:54:48;;;;;;;10.80;10.60;;;13.00;1.00;;;;;;5037455;28;20551;-79
2023/04/11 02:57:16;;;;;;;10.80;10.60;;;12.90;1.00;;;;;;5036790;28;21092;-79
2023/04/11 02:59:44;;;;;;;10.50;10.20;;;12.90;99.90;;;;;;5034550;28;20509;-82
2023/04/11 03:02:12;;;;;;;10.30;10.10;;;12.80;99.90;;;;;;5039919;28;20459;-78
2023/04/11 03:04:40;;;;;;;10.77;10.57;;;12.80;1.00;;;;;;5037065;28;20494;-80
2023/04/11 03:07:09;;;;;;;10.67;10.37;;;12.70;1.00;;;;;;5038702;28;20524;-80
2023/04/11 03:09:38;;;;;;;10.40;10.20;;;12.70;1.00;;;;;;5040469;28;20896;-81
2023/04/11 03:12:06;;;;;;;10.80;10.60;;;12.70;99.90;;;;;;5040151;28;20507;-79
2023/04/11 03:14:35;;;;;;;10.50;10.20;;;12.70;1.00;;;;;;5036168;28;20526;-79
2023/04/11 03:17:03;;;;;;;10.63;10.33;;;12.60;1.00;;;;;;5041224;28;20518;-79
2023/04/11 03:19:31;;;;;;;10.80;10.60;;;12.60;99.90;;;;;;5037363;28;20472;-80
2023/04/11 03:22:01;;;;;;;11.63;11.20;;;12.50;1.00;;;;;;5037082;28;20466;-80
2023/04/11 03:24:29;;;;;;;11.80;11.37;;;12.60;19.10;;;;;;5036692;28;20841;-82
2023/04/11 03:27:00;;;;;;;11.37;11.07;;;12.50;1.00;;;;;;5037232;28;20469;-82
2023/04/11 03:29:28;;;;;;;11.30;11.10;;;12.50;1.00;;;;;;5039441;28;20518;-83
2023/04/11 03:31:56;;;;;;;11.50;11.20;;;12.40;17.20;;;;;;5041549;28;20495;-82
2023/04/11 03:34:24;;;;;;;11.43;11.23;;;12.30;18.90;;;;;;5039628;28;20476;-81
2023/04/11 03:36:53;;;;;;;12.03;11.70;;;12.30;1.00;;;;;;5039813;28;20514;-80
2023/04/11 03:39:21;;;;;;;11.60;11.40;;;12.30;1.00;;;;;;5055024;28;20517;-80
2023/04/11 03:41:49;;;;;;;12.10;11.60;;;12.30;1.30;;;;;;5036768;28;20436;-81
2023/04/11 03:44:19;;;;;;;11.70;11.50;;;12.30;99.90;;;;;;5035832;28;20513;-81
2023/04/11 03:46:47;;;;;;;11.80;11.60;;;12.30;1.00;;;;;;5039498;28;20440;-81
2023/04/11 03:49:15;;;;;;;11.60;11.30;;;12.30;99.90;;;;;;5038578;28;20924;-81
2023/04/11 03:51:43;;;;;;;11.70;11.50;;;12.20;99.90;;;;;;5043248;28;20452;-82
2023/04/11 03:54:14;;;;;;;11.20;11.00;;;12.20;99.90;;;;;;5037740;28;20487;-81
2023/04/11 03:56:42;;;;;;;11.40;11.20;;;12.30;99.90;;;;;;5038972;28;20460;-81
2023/04/11 03:59:13;;;;;;;11.53;11.23;;;12.40;1.00;;;;;;5036025;28;20467;-80
2023/04/11 04:01:43;;;;;;;11.63;11.40;;;12.40;99.90;;;;;;5036285;28;22620;-81
2023/04/11 04:04:11;;;;;;;11.90;11.60;;;12.30;99.90;;;;;;5041526;28;20475;-79
2023/04/11 04:06:39;;;;;;;11.70;11.30;;;12.30;99.90;;;;;;5037464;28;20574;-79
2023/04/11 04:09:07;;;;;;;11.40;11.20;;;12.30;1.00;;;;;;5046628;28;20511;-80
2023/04/11 04:11:35;;;;;;;11.53;11.33;;;12.20;99.90;;;;;;5040492;28;20459;-80
2023/04/11 04:14:03;;;;;;;11.70;11.40;;;12.20;99.90;;;;;;5040991;28;20474;-78
2023/04/11 04:16:31;;;;;;;11.90;11.60;;;12.30;99.90;;;;;;5040297;28;20450;-79
2023/04/11 04:19:01;;;;;;;12.27;11.80;;;12.20;99.90;;;;;;5039905;28;20452;-80
2023/04/11 04:21:31;;;;;;;11.90;11.60;;;12.20;1.00;;;;;;5041153;28;20452;-79
2023/04/11 04:24:02;;;;;;;12.10;11.80;;;12.20;99.90;;;;;;5037608;28;20471;-80
2023/04/11 04:26:31;;;;;;;11.90;11.70;;;12.20;1.00;;;;;;5040207;28;20534;-80
2023/04/11 04:29:03;;;;;;;12.20;11.97;;;12.20;1.00;;;;;;5039634;28;20475;-81
2023/04/11 04:31:33;;;;;;;11.90;11.70;;;12.30;1.00;;;;;;5037008;28;20467;-78
2023/04/11 04:34:07;;;;;;;11.73;11.47;;;12.20;1.00;;;;;;5040974;28;21074;-81
2023/04/11 04:36:45;;;;;;;11.27;11.07;;;12.10;12.70;;;;;;5042914;28;20456;-80
2023/04/11 04:39:16;;;;;;;11.57;11.37;;;12.10;99.90;;;;;;5038744;28;20468;-80
2023/04/11 04:41:47;;;;;;;11.50;11.20;;;12.00;64.10;;;;;;5039622;28;20454;-80
2023/04/11 04:44:16;;;;;;;10.80;10.60;;;12.00;1.00;;;;;;5039354;28;21167;-79
2023/04/11 04:46:44;;;;;;;11.20;11.00;;;12.00;1.00;;;;;;5040668;28;20456;-79
2023/04/11 04:49:14;;;;;;;11.20;11.00;;;11.90;1.00;;;;;;5042011;28;20472;-83
2023/04/11 04:51:42;;;;;;;11.13;10.93;;;11.90;99.90;;;;;;5043994;28;21273;-81
2023/04/11 04:54:10;;;;;;;10.60;10.40;;;11.90;1.00;;;;;;5040442;28;20483;-80
2023/04/11 04:56:40;;;;;;;10.80;10.60;;;11.90;1.00;;;;;;5043932;28;20456;-80
2023/04/11 04:59:13;;;;;;;10.90;10.70;;;11.90;99.90;;;;;;5042566;28;21064;-80
2023/04/11 05:01:41;;;;;;;11.03;10.80;;;11.80;99.90;;;;;;5038830;28;20461;-78
2023/04/11 05:04:10;;;;;;;11.57;11.10;;;11.90;99.90;;;;;;5037905;28;20520;-80
2023/04/11 05:06:40;;;;;;;10.97;10.77;;;11.80;99.90;;;;;;5036551;28;20456;-80
2023/04/11 05:09:08;;;;;;;10.80;10.60;;;11.80;99.90;;;;;;5027841;28;20997;-81
2023/04/11 05:11:36;;;;;;;11.20;10.70;;;11.70;99.90;;;;;;5037950;28;20510;-79
2023/04/11 05:14:04;;;;;;;11.17;10.77;;;11.70;99.90;;;;;;5042250;28;21324;-81
2023/04/11 05:16:32;;;;;;;10.90;10.60;;;11.60;59.50;;;;;;5043123;28;20529;-81
2023/04/11 05:19:00;;;;;;;10.30;10.10;;;11.50;99.90;;;;;;5034353;28;20444;-79
2023/04/11 05:21:29;;;;;;;10.80;10.50;;;11.60;99.90;;;;;;5034570;28;21016;-81
2023/04/11 05:23:58;;;;;;;10.40;10.20;;;11.60;99.90;;;;;;5037159;28;20573;-81
2023/04/11 05:26:26;;;;;;;10.10;9.90;;;11.50;99.90;;;;;;5037503;28;20443;-82
2023/04/11 05:28:54;;;;;;;11.07;10.73;;;11.50;1.00;;;;;;5036504;28;20487;-80
2023/04/11 05:31:24;;;;;;;10.60;10.30;;;11.40;8.30;;;;;;5039617;28;20546;-83
2023/04/11 05:33:52;;;;;;;10.50;10.30;;;11.40;1.00;;;;;;5040645;28;21567;-83
2023/04/11 05:36:21;;;;;;;10.47;10.27;;;11.40;33.90;;;;;;5036362;28;20444;-82
2023/04/11 05:38:49;;;;;;;10.70;10.40;;;11.40;2.90;;;;;;5035305;28;20459;-81
2023/04/11 05:41:18;;;;;;;10.60;10.30;;;11.30;9.90;;;;;;5038042;28;20449;-82
2023/04/11 05:43:47;;;;;;;10.03;9.73;;;11.40;1.00;;;;;;5036553;28;20452;-81
2023/04/11 05:46:15;;;;;;;9.90;9.50;;;11.30;3.10;;;;;;5040580;28;20446;-81
2023/04/11 05:48:43;;;;;;;9.97;9.80;;;11.20;47.60;;;;;;5030694;28;20448;-79
2023/04/11 05:51:16;;;;;;;10.13;9.93;;;11.30;99.90;;;;;;5037164;28;20445;-82
2023/04/11 05:53:47;;;;;;;9.47;9.30;;;11.30;1.00;;;;;;5038695;28;20977;-80
2023/04/11 05:56:16;;;;;;;10.00;9.60;;;11.30;1.00;;;;;;5041131;28;20522;-80
2023/04/11 05:58:45;;;;;;;9.77;9.47;;;11.30;1.00;;;;;;5036752;28;20443;-82
2023/04/11 06:01:17;;;;;;;9.10;8.90;;;11.30;1.00;;;;;;5031567;28;20467;-80
2023/04/11 06:03:45;;;;;;;9.80;9.60;;;11.20;1.00;;;;;;5028742;28;20501;-80
2023/04/11 06:06:14;;;;;;;9.20;9.00;;;11.20;1.00;;;;;;5034948;28;20460;-81
2023/04/11 06:08:43;;;;;;;9.90;9.70;;;11.20;1.00;;;;;;5035884;28;20535;-82
2023/04/11 06:11:11;;;;;;;9.60;9.30;;;11.20;1.00;;;;;;5038826;28;20480;-80
2023/04/11 06:13:39;;;;;;;9.43;9.23;;;11.20;1.00;;;;;;5038932;28;20457;-81
2023/04/11 06:16:09;;;;;;;8.70;8.50;;;11.20;1.00;;;;;;5038099;28;20529;-82
2023/04/11 06:18:37;;;;;;;8.30;8.10;;;11.20;1.00;;;;;;5035229;28;20461;-82
2023/04/11 06:21:06;;;;;;;8.40;8.20;;;11.20;1.00;;;;;;5032789;28;20517;-82
2023/04/11 06:23:36;;;;;;;8.40;8.20;;;11.20;1.00;;;;;;5030731;28;20460;-80
2023/04/11 06:26:07;;;;;;;8.60;8.40;;;11.10;1.00;;;;;;5043754;28;20551;-81
2023/04/11 06:28:38;;;;;;;8.90;8.50;;;11.10;1.00;;;;;;5033659;28;20565;-81
2023/04/11 06:31:09;;;;;;;8.73;8.53;;;11.10;1.00;;;;;;5032223;28;20474;-82
2023/04/11 06:33:38;;;;;;;8.70;8.30;;;11.10;1.00;;;;;;5035222;28;20459;-81
2023/04/11 06:36:06;;;;;;;8.07;7.77;;;11.10;1.00;;;;;;5036299;28;20911;-82
2023/04/11 06:38:35;;;;;;;8.43;8.00;;;11.10;1.00;;;;;;5036783;28;20511;-83
2023/04/11 06:41:03;;;;;;;8.13;7.93;;;11.00;1.00;;;;;;5035262;28;20441;-82
2023/04/11 06:43:31;;;;;;;8.37;8.07;;;11.00;1.00;;;;;;5040751;28;20526;-82
2023/04/11 06:46:00;;;;;;;7.90;7.70;;;11.00;1.00;;;;;;5036950;28;20459;-81
2023/04/11 06:48:30;;;;;;;8.10;7.70;;;11.00;1.00;;;;;;5041163;28;20985;-79
2023/04/11 06:50:58;;;;;;;8.00;7.80;;;11.10;1.00;;;;;;5036952;28;20482;-80
2023/04/11 06:53:26;;;;;;;8.00;7.80;;;11.00;1.00;;;;;;5035908;28;21047;-80
2023/04/11 06:55:54;;;;;;;8.30;8.00;;;11.00;1.00;;;;;;5037610;28;20516;-80
2023/04/11 06:58:22;;;;;;;8.13;7.83;;;11.00;1.00;;;;;;5038177;28;20457;-82
2023/04/11 07:00:51;;;;;;;8.00;7.80;;;11.00;1.00;;;;;;5039318;28;20482;-80
2023/04/11 07:03:19;;;;;;;8.20;8.00;;;11.10;1.00;;;;;;5036653;28;20458;-82
2023/04/11 07:05:50;;;;;;;8.27;8.03;;;11.10;1.00;;;;;;5033717;28;20993;-82
2023/04/11 07:08:18;;;;;;;7.97;7.77;;;11.00;1.00;;;;;;5037380;28;20456;-81
2023/04/11 07:10:46;;;;;;;7.70;7.60;;;11.10;1.00;;;;;;5038094;28;20564;-80
2023/04/11 07:13:14;;;;;;;8.10;7.73;;;11.00;1.00;;;;;;5036339;28;20465;-82
2023/04/11 07:15:42;;;;;;;9.13;8.67;;;11.10;1.00;;;;;;5036989;28;20469;-80
2023/04/11 07:18:11;;;;;;;7.80;7.70;;;11.10;1.00;;;;;;5042084;28;20505;-80
2023/04/11 07:20:39;;;;;;;8.57;8.37;;;11.10;1.00;;;;;;5038773;28;20444;-80
2023/04/11 07:23:09;;;;;;;8.37;8.10;;;11.10;1.00;;;;;;5036311;28;20459;-80
2023/04/11 07:25:38;;;;;;;8.70;8.30;;;11.10;1.00;;;;;;5039954;28;20490;-82
2023/04/11 07:28:07;;;;;;;8.43;8.13;;;11.10;1.00;;;;;;5037494;28;20558;-81
2023/04/11 07:30:35;;;;;;;8.17;7.87;;;11.20;1.00;;;;;;5039172;28;20474;-80
2023/04/11 07:33:04;;;;;;;7.87;7.60;;;11.20;1.00;;;;;;5041241;28;20459;-81
2023/04/11 07:35:33;;;;;;;7.70;7.50;;;11.20;1.00;;;;;;5041419;28;20483;-81
2023/04/11 07:38:01;;;;;;;7.90;7.70;;;11.20;1.00;;;;;;5041426;28;20544;-81
2023/04/11 07:40:31;;;;;;;8.40;8.20;;;11.10;1.00;;;;;;5037401;28;20558;-80
2023/04/11 07:43:00;;;;;;;8.90;8.70;;;11.20;1.00;;;;;;5042730;28;20451;-82
2023/04/11 07:45:28;;;;;;;8.67;8.40;;;11.30;1.00;;;;;;5039175;28;20467;-80
2023/04/11 07:47:56;;;;;;;8.50;8.30;;;11.50;1.00;;;;;;5041536;28;20453;-80
2023/04/11 07:50:25;;;;;;;9.43;9.03;;;11.70;1.00;;;;;;5039003;28;20487;-81
2023/04/11 07:52:54;;;;;;;9.70;9.20;;;11.80;1.00;;;;;;5042177;28;20483;-80
2023/04/11 07:55:22;;;;;;;10.03;9.43;;;11.90;1.00;;;;;;5043290;28;20474;-82
2023/04/11 07:57:52;;;;;;;9.93;9.33;;;12.10;1.00;;;;;;5038307;28;21116;-83
2023/04/11 08:00:21;;;;;;;9.80;9.50;;;12.20;99.90;;;;;;5036635;28;20452;-81
2023/04/11 08:02:49;;;;;;;10.10;9.60;;;12.40;99.90;;;;;;5039513;28;20508;-82
2023/04/11 08:05:18;;;;;;;9.00;8.60;;;12.50;99.90;;;;;;5042165;28;21022;-82
2023/04/11 08:07:46;;;;;;;9.87;9.50;;;12.60;99.90;;;;;;5042951;28;20554;-82
2023/04/11 08:10:14;;;;;;;10.43;9.43;;;12.60;99.90;;;;;;5043202;28;20529;-81
2023/04/11 08:12:44;;;;;;;8.50;8.20;;;12.50;99.90;;;;;;5038522;28;20449;-82
2023/04/11 08:15:13;;;;;;;8.60;8.30;;;12.40;99.90;;;;;;5058925;28;20513;-81
2023/04/11 08:17:42;;;;;;;9.07;8.57;;;12.40;99.90;;;;;;5042626;28;20519;-81
2023/04/11 08:20:12;;;;;;;8.40;8.17;;;12.30;99.90;;;;;;5035257;28;20450;-81
2023/04/11 08:22:43;;;;;;;8.77;8.27;;;12.30;99.90;;;;;;5043085;28;20448;-83
2023/04/11 08:25:13;;;;;;;8.23;8.03;;;12.20;99.90;;;;;;5044756;28;20565;-81
2023/04/11 08:27:41;;;;;;;8.70;8.30;;;12.20;99.90;;;;;;5044076;28;20859;-81
2023/04/11 08:30:10;;;;;;;8.70;8.23;;;12.20;99.90;;;;;;5036768;28;20459;-83
2023/04/11 08:32:41;;;;;;;7.80;7.60;;;12.10;99.90;;;;;;5046127;28;20452;-81
2023/04/11 08:35:10;;;;;;;8.13;7.93;;;12.20;99.90;;;;;;5044878;28;20491;-80
2023/04/11 08:37:38;;;;;;;8.57;7.97;;;12.20;99.90;;;;;;5045178;28;20465;-82
2023/04/11 08:40:07;;;;;;;9.57;9.03;;;12.30;99.90;;;;;;5038243;28;20470;-81
2023/04/11 08:42:36;;;;;;;8.10;7.63;;;12.40;99.90;;;;;;5047764;28;20926;-82
2023/04/11 08:45:07;;;;;;;7.93;7.63;;;12.40;99.90;;;;;;5049306;28;20477;-82
2023/04/11 08:47:36;;;;;;;8.40;7.80;;;12.50;99.90;;;;;;5040244;28;20549;-81
2023/04/11 08:50:07;;;;;;;8.53;7.77;;;12.50;99.90;;;;;;5042274;28;20453;-81
2023/04/11 08:52:38;;;;;;;8.07;7.80;;;12.50;99.90;;;;;;5043488;28;20645;-83
2023/04/11 08:55:07;;;;;;;7.50;7.30;;;12.60;99.90;;;;;;5042659;28;20569;-82
2023/04/11 08:57:37;;;;;;;8.70;8.00;;;12.70;99.90;;;;;;5042025;28;20506;-82
2023/04/11 09:00:13;;;;;;;8.00;7.50;;;12.90;99.90;;;;;;5043671;28;20458;-81
2023/04/11 09:02:58;;;;;;;7.40;7.20;;;13.00;99.90;;;;;;5046886;28;20671;-81
2023/04/11 09:05:32;;;;;;;7.27;6.70;;;13.00;99.90;;;;;;5060441;28;20482;-82
2023/04/11 09:08:03;;;;;;;6.80;6.60;;;13.10;99.90;;;;;;5045354;28;20541;-82
2023/04/11 09:10:31;;;;;;;7.13;6.50;;;13.10;99.90;;;;;;5043638;28;20472;-81
2023/04/11 09:12:59;;;;;;;6.87;6.47;;;13.10;99.90;;;;;;5042407;28;20465;-80
2023/04/11 09:15:30;;;;;;;7.20;6.80;;;13.20;99.90;;;;;;5044672;28;20482;-81
2023/04/11 09:17:58;;;;;;;8.03;7.43;;;13.20;99.90;;;;;;5041869;28;20446;-83
2023/04/11 09:20:29;;;;;;;7.93;7.60;;;13.40;99.90;;;;;;5045901;28;20545;-82
2023/04/11 09:22:59;;;;;;;7.43;6.77;;;13.30;99.90;;;;;;5046839;28;20519;-82
2023/04/11 09:25:28;;;;;;;7.37;6.77;;;13.50;99.90;;;;;;5045829;28;20513;-82
2023/04/11 09:28:08;;;;;;;6.90;6.70;;;13.40;99.90;;;;;;5046151;28;20449;-81
2023/04/11 09:30:36;;;;;;;6.43;6.00;;;13.50;99.90;;;;;;5045470;28;20899;-81
2023/04/11 09:33:21;;;;;;;6.50;6.00;;;13.50;99.90;;;;;;5041389;28;20500;-82
2023/04/11 09:35:50;;;;;;;6.47;6.17;;;13.60;99.90;;;;;;5042111;28;20474;-82
2023/04/11 09:38:31;;;;;;;6.80;6.30;;;13.70;99.90;;;;;;5039976;28;20486;-81
2023/04/11 09:41:00;;;;;;;5.77;5.60;;;13.70;99.90;;;;;;5039499;28;20453;-80
2023/04/11 09:43:28;;;;;;;6.30;5.80;;;13.60;99.90;;;;;;5045559;28;20470;-80
2023/04/11 09:46:09;;;;;;;5.67;5.47;;;13.50;99.90;;;;;;5038845;28;20465;-80
2023/04/11 09:48:38;;;;;;;6.50;5.87;;;13.40;99.90;;;;;;5049252;28;21863;-82
2023/04/11 09:51:14;;;;;;;5.60;5.40;;;13.30;99.90;;;;;;5043369;28;20502;-81
2023/04/11 09:54:02;;;;;;;6.03;5.43;;;13.30;99.90;;;;;;5043825;28;20479;-81
2023/04/11 09:56:32;;;;;;;7.40;5.83;;;13.40;99.90;;;;;;5047754;28;20480;-80
2023/04/11 09:59:02;;;;;;;6.47;6.00;;;13.40;99.90;;;;;;5043711;28;20544;-80
2023/04/11 10:01:30;;;;;;;6.10;5.80;;;13.40;99.90;;;;;;5044076;28;20463;-82
2023/04/11 10:03:59;;;;;;;6.77;6.47;;;13.60;99.90;;;;;;5044473;28;20514;-82
2023/04/11 10:06:32;;;;;;;6.10;5.90;;;13.70;99.90;;;;;;5042996;28;20488;-81
2023/04/11 10:09:08;;;;;;;6.30;6.00;;;13.80;99.90;;;;;;5042656;28;20835;-81
2023/04/11 10:11:37;;;;;;;6.30;6.00;;;13.90;99.90;;;;;;5043909;28;20474;-82
2023/04/11 10:14:05;;;;;;;6.60;6.20;;;13.90;99.90;;;;;;5044272;28;20829;-80
2023/04/11 10:16:33;;;;;;;7.37;6.77;;;13.90;99.90;;;;;;5045613;28;20455;-81
2023/04/11 10:19:23;;;;;;;5.90;5.40;;;14.10;99.90;;;;;;5047865;28;20462;-84
2023/04/11 10:21:52;;;;;;;6.50;6.00;;;14.10;99.90;;;;;;5047437;28;20546;-83
2023/04/11 10:24:22;;;;;;;6.80;6.50;;;14.20;99.90;;;;;;5055264;28;20740;-83
2023/04/11 10:26:51;;;;;;;6.60;6.20;;;14.20;99.90;;;;;;5054016;28;20491;-83
2023/04/11 10:29:48;;;;;;;6.00;5.70;;;14.30;99.90;;;;;;5049914;28;21181;-81
2023/04/11 10:32:21;;;;;;;6.40;6.10;;;14.40;99.90;;;;;;5043005;28;20779;-81
2023/04/11 10:35:31;;;;;;;6.00;5.80;;;14.30;99.90;;;;;;5042709;28;20481;-80
2023/04/11 10:37:59;;;;;;;6.00;5.70;;;14.40;99.90;;;;;;5045468;28;20468;-82
2023/04/11 10:40:29;;;;;;;5.87;5.67;;;14.30;99.90;;;;;;5033994;28;20461;-80
2023/04/11 10:43:17;;;;;;;6.77;6.37;;;14.20;99.90;;;;;;5047929;28;20461;-79
2023/04/11 10:46:17;;;;;;;6.40;6.10;;;14.20;99.90;;;;;;5043211;28;20469;-82
2023/04/11 10:48:57;;;;;;;6.47;6.10;;;14.10;99.90;;;;;;5057305;28;20463;-82
2023/04/11 10:51:26;;;;;;;6.47;6.10;;;14.10;99.90;;;;;;5042054;28;20476;-83
2023/04/11 10:53:58;;;;;;;6.40;6.10;;;14.00;99.90;;;;;;5035232;28;21000;-81
2023/04/11 10:56:57;;;;;;;6.13;5.80;;;14.00;99.90;;;;;;5040290;28;20468;-83
2023/04/11 10:59:56;;;;;;;5.80;5.50;;;14.00;99.90;;;;;;4978355;28;20551;-83
2023/04/11 11:02:37;;;;;;;6.67;6.20;;;14.10;99.90;;;;;;5042495;28;20455;-81
2023/04/11 11:05:17;;;;;;;6.67;6.17;;;14.10;99.90;;;;;;5046652;28;20553;-82
2023/04/11 11:07:50;;;;;;;6.30;6.20;;;14.20;99.90;;;;;;5042797;28;20493;-82
2023/04/11 11:10:38;;;;;;;6.00;5.90;;;14.30;99.90;;;;;;5042637;28;20465;-83
2023/04/11 11:13:06;;;;;;;6.30;5.90;;;14.40;99.90;;;;;;5043550;28;20542;-80
2023/04/11 11:15:36;;;;;;;5.90;5.40;;;14.50;99.90;;;;;;5044122;28;21057;-82
2023/04/11 11:18:09;;;;;;;5.97;5.70;;;14.50;99.90;;;;;;5040664;28;20444;-85
2023/04/11 11:20:37;;;;;;;6.13;5.73;;;14.60;99.90;;;;;;5032596;28;20828;-84
2023/04/11 11:23:07;;;;;;;6.10;5.80;;;14.70;99.90;;;;;;5036388;28;20448;-82
2023/04/11 11:25:36;;;;;;;5.90;5.50;;;14.80;99.90;;;;;;5034958;28;20495;-82
2023/04/11 11:28:06;;;;;;;5.67;5.37;;;14.80;99.90;;;;;;5041781;28;20528;-81
2023/04/11 11:30:35;;;;;;;5.77;5.57;;;15.00;99.90;;;;;;5038705;28;20450;-80
2023/04/11 11:33:17;;;;;;;5.27;5.10;;;14.90;99.90;;;;;;5041831;28;20879;-81
2023/04/11 11:35:51;;;;;;;5.63;5.43;;;14.90;99.90;;;;;;5039913;28;21172;-80
2023/04/11 11:38:20;;;;;;;5.30;5.10;;;14.80;99.90;;;;;;5033932;28;20543;-84
2023/04/11 11:40:49;;;;;;;5.70;5.30;;;14.80;99.90;;;;;;5039089;28;20452;-81
2023/04/11 11:43:17;;;;;;;6.00;5.40;;;14.80;99.90;;;;;;5041126;28;20505;-82
2023/04/11 11:45:46;;;;;;;8.20;7.53;;;14.90;99.90;;;;;;5045138;28;20476;-82
2023/04/11 11:52:07;;;;;;;7.57;7.03;;;14.70;99.90;;;;;;5041642;28;20463;-82
2023/04/11 11:57:53;;;;;;;6.23;5.73;;;15.00;99.90;;;;;;5042345;28;20464;-84
2023/04/11 12:00:37;;;;;;;5.30;5.03;;;15.10;99.90;;;;;;5041056;28;20460;-83
2023/04/11 12:03:53;;;;;;;6.33;5.97;;;15.10;99.90;;;;;;5040736;28;20459;-81
2023/04/11 12:06:22;;;;;;;6.13;4.70;;;15.10;99.90;;;;;;5040345;28;20462;-80
2023/04/11 12:08:52;;;;;;;4.80;4.50;;;15.10;99.90;;;;;;5034971;28;20486;-81
2023/04/11 12:11:21;;;;;;;4.67;4.20;;;15.00;99.90;;;;;;5035997;28;20474;-80
2023/04/11 12:13:52;;;;;;;4.53;4.20;;;15.10;99.90;;;;;;5037499;28;20590;-79
2023/04/11 12:16:22;;;;;;;4.67;3.90;;;15.20;99.90;;;;;;5032438;28;20463;-81
2023/04/11 12:18:55;;;;;;;3.90;3.60;;;15.10;98.60;;;;;;5036777;28;20456;-82
2023/04/11 12:21:25;;;;;;;3.70;3.50;;;15.00;98.20;;;;;;5040311;28;20467;-84
2023/04/11 12:23:53;;;;;;;3.80;3.70;;;15.00;98.20;;;;;;5043399;28;20562;-80
2023/04/11 12:26:23;;;;;;;6.50;3.90;;;15.00;98.40;;;;;;5041251;28;20456;-80
2023/04/11 12:28:52;;;;;;;4.10;3.80;;;15.10;98.30;;;;;;5039343;28;20448;-78
2023/04/11 12:31:20;;;;;;;4.17;3.77;;;15.10;95.80;;;;;;5044706;28;20453;-81
2023/04/11 12:33:48;;;;;;;3.97;3.67;;;15.20;93.40;;;;;;5044848;28;21276;-79
2023/04/11 12:36:18;;;;;;;4.10;3.43;;;15.10;92.10;;;;;;5035793;28;20904;-81
2023/04/11 12:38:46;;;;;;;3.67;3.47;;;15.10;91.90;;;;;;5039609;28;20474;-81
2023/04/11 12:41:14;;;;;;;4.53;4.13;;;15.10;90.80;;;;;;5041244;28;20494;-81
2023/04/11 12:44:01;;;;;;;4.17;3.97;;;14.90;89.00;;;;;;5038562;28;20475;-83
2023/04/11 12:46:29;;;;;;;4.13;3.93;;;14.90;88.50;;;;;;5034842;28;20455;-78
2023/04/11 12:48:57;;;;;;;3.93;3.73;;;14.90;85.50;;;;;;5040403;28;20467;-81
2023/04/11 12:51:27;;;;;;;4.53;4.13;;;15.00;84.20;;;;;;5036937;28;20514;-80
2023/04/11 12:53:55;;;;;;;4.80;4.50;;;14.90;83.50;;;;;;5037233;28;20476;-81
2023/04/11 12:56:23;;;;;;;4.80;4.60;;;14.90;82.60;;;;;;5038610;28;20485;-81
2023/04/11 12:58:53;;;;;;;4.53;4.13;;;15.00;84.50;;;;;;5037428;28;20464;-80
2023/04/11 13:01:25;;;;;;;6.97;4.40;;;15.10;84.90;;;;;;5036219;28;20553;-80
2023/04/11 13:03:53;;;;;;;5.37;4.83;;;15.10;90.10;;;;;;5033556;28;20460;-81
2023/04/11 13:06:22;;;;;;;4.80;4.60;;;15.20;91.90;;;;;;5040368;28;20492;-84